.
WxDataArchive / Data Records for 2014-01-02
2014-01-01 January 2014 2014-01-03

Data Records for Thursday, 02 January 2014

Time	Temp	Chill	HIndex	Humid	Dewpt	 Wind 	HiWind	WindDir	Rain 	Barom 
-----	----	-----	------	-----	-----	------	------	-------	-----	----- 
00:00	14.8	14.8	14.8	84	10.9	1	5	112	0.00	30.147 
00:05	14.8	14.8	14.8	84	10.9	2	6	112	0.00	30.147 
00:10	14.8	14.8	14.8	84	10.9	1	5	90	0.00	30.147 
00:15	14.9	14.9	14.9	84	11.0	1	5	68	0.00	30.146 
00:20	14.9	14.9	14.9	84	11.0	1	4	68	0.00	30.146 
00:25	15.1	15.1	15.1	84	11.2	1	6	112	0.00	30.146 
00:30	15.1	15.1	15.1	84	11.2	2	5	90	0.00	30.143 
00:35	15.1	15.1	15.1	84	11.2	1	5	90	0.00	30.143 
00:40	15.2	15.2	15.2	84	11.3	1	3	45	0.00	30.143 
00:45	15.2	15.2	15.2	84	11.3	1	4	90	0.00	30.135 
00:50	15.2	15.2	15.2	84	11.3	1	5	90	0.00	30.135 
00:55	15.2	15.2	15.2	83	11.0	2	10	112	0.00	30.135 
01:00	15.4	15.4	15.4	83	11.2	2	5	90	0.00	30.130 
01:05	15.4	15.4	15.4	83	11.2	2	6	90	0.00	30.130 
01:10	15.4	15.4	15.4	83	11.2	2	9	112	0.00	30.130 
01:15	15.4	15.4	15.4	83	11.2	2	10	90	0.00	30.116 
01:20	15.4	15.4	15.4	83	11.2	2	9	90	0.00	30.116 
01:25	15.4	15.4	15.4	83	11.2	1	5	112	0.00	30.116 
01:30	15.4	15.4	15.4	83	11.2	1	6	112	0.00	30.117 
01:35	15.6	15.6	15.6	84	11.6	1	5	112	0.00	30.117 
01:40	15.6	15.6	15.6	84	11.6	2	6	112	0.00	30.117 
01:45	15.6	15.6	15.6	84	11.6	2	7	112	0.00	30.115 
01:50	15.6	15.6	15.6	84	11.6	2	7	90	0.00	30.115 
01:55	15.6	15.6	15.6	84	11.6	3	11	90	0.00	30.115 
02:00	15.6	15.6	15.6	84	11.6	2	6	90	0.00	30.112 
02:05	15.6	15.6	15.6	84	11.6	1	5	112	0.00	30.112 
02:10	15.6	15.6	15.6	84	11.6	2	6	68	0.00	30.112 
02:15	15.6	15.6	15.6	84	11.6	2	7	112	0.00	30.103 
02:20	15.6	15.6	15.6	84	11.6	1	6	90	0.00	30.103 
02:25	15.6	15.6	15.6	84	11.6	2	10	112	0.00	30.103 
02:30	15.6	15.6	15.6	84	11.6	2	11	68	0.00	30.110 
02:35	15.6	15.6	15.6	84	11.6	1	5	68	0.00	30.110 
02:40	15.6	15.6	15.6	84	11.6	3	14	112	0.00	30.110 
02:45	15.6	15.6	15.6	84	11.6	2	13	90	0.00	30.109 
02:50	15.6	15.6	15.6	84	11.6	1	5	90	0.00	30.109 
02:55	15.6	15.6	15.6	85	11.9	2	12	112	0.00	30.109 
03:00	15.6	9.1	15.6	84	11.6	4	10	90	0.00	30.107 
03:05	15.6	15.6	15.6	84	11.6	2	8	112	0.00	30.107 
03:10	15.6	15.6	15.6	85	11.9	3	6	112	0.00	30.107 
03:15	15.6	15.6	15.6	85	11.9	2	7	90	0.00	30.101 
03:20	15.4	15.4	15.4	85	11.7	3	10	112	0.00	30.101 
03:25	15.4	15.4	15.4	85	11.7	2	9	90	0.00	30.101 
03:30	15.4	15.4	15.4	85	11.7	3	9	112	0.00	30.096 
03:35	15.4	15.4	15.4	85	11.7	3	11	90	0.00	30.096 
03:40	15.4	15.4	15.4	85	11.7	3	15	112	0.00	30.096 
03:45	15.4	15.4	15.4	86	12.0	2	7	112	0.00	30.091 
03:50	15.4	15.4	15.4	86	12.0	2	9	112	0.00	30.091 
03:55	15.4	8.9	15.4	86	12.0	4	11	112	0.00	30.091 
04:00	15.6	15.6	15.6	86	12.2	3	10	112	0.00	30.079 
04:05	15.6	15.6	15.6	86	12.2	3	13	90	0.00	30.079 
04:10	15.6	15.6	15.6	86	12.2	3	9	112	0.00	30.079 
04:15	15.6	15.6	15.6	86	12.2	1	6	90	0.00	30.071 
04:20	15.6	15.6	15.6	86	12.2	2	7	90	0.00	30.071 
04:25	15.6	15.6	15.6	86	12.2	2	6	112	0.00	30.071 
04:30	15.6	15.6	15.6	86	12.2	2	9	90	0.00	30.065 
04:35	15.6	15.6	15.6	86	12.2	3	8	90	0.00	30.065 
04:40	15.6	15.6	15.6	86	12.2	3	11	90	0.00	30.065 
04:45	15.6	15.6	15.6	86	12.2	3	9	112	0.00	30.052 
04:50	15.6	15.6	15.6	86	12.2	2	9	112	0.00	30.052 
04:55	15.6	15.6	15.6	86	12.2	3	9	90	0.00	30.052 
05:00	15.6	15.6	15.6	86	12.2	3	11	90	0.00	30.045 
05:05	15.4	15.4	15.4	86	12.0	3	7	90	0.00	30.045 
05:10	15.4	8.9	15.4	86	12.0	4	11	112	0.00	30.045 
05:15	15.4	15.4	15.4	86	12.0	2	10	112	0.00	30.047 
05:20	15.4	15.4	15.4	86	12.0	3	10	112	0.00	30.047 
05:25	15.2	15.2	15.2	86	11.8	2	11	112	0.00	30.047 
05:30	15.2	15.2	15.2	86	11.8	3	11	112	0.00	30.042 
05:35	15.2	15.2	15.2	86	11.8	3	7	90	0.00	30.042 
05:40	15.1	8.6	15.1	86	11.7	4	12	112	0.00	30.042 
05:45	15.1	15.1	15.1	86	11.7	3	16	90	0.00	30.045 
05:50	15.1	15.1	15.1	86	11.7	3	14	68	0.00	30.045 
05:55	15.1	15.1	15.1	86	11.7	2	5	90	0.00	30.045 
06:00	14.9	14.9	14.9	86	11.5	3	9	112	0.00	30.042 
06:05	14.9	14.9	14.9	86	11.5	2	8	112	0.00	30.042 
06:10	14.9	14.9	14.9	86	11.5	2	10	90	0.00	30.042 
06:15	14.9	14.9	14.9	86	11.5	2	10	90	0.00	30.044 
06:20	14.8	8.2	14.8	86	11.4	4	9	112	0.00	30.044 
06:25	14.6	14.6	14.6	86	11.2	3	9	112	0.00	30.044 
06:30	14.6	14.6	14.6	86	11.2	2	6	90	0.00	30.045 
06:35	14.6	8.0	14.6	86	11.2	4	12	112	0.00	30.045 
06:40	14.4	14.4	14.4	86	11.0	2	11	112	0.00	30.045 
06:45	14.4	14.4	14.4	86	11.0	2	6	112	0.00	30.045 
06:50	14.3	14.3	14.3	86	10.9	2	7	68	0.00	30.045 
06:55	14.1	14.1	14.1	86	10.7	2	9	90	0.00	30.045 
07:00	14.1	14.1	14.1	86	10.7	3	9	90	0.00	30.051 
07:05	14.0	14.0	14.0	86	10.6	2	6	90	0.00	30.051 
07:10	14.0	14.0	14.0	86	10.6	2	5	338	0.00	30.051 
07:15	14.0	14.0	14.0	86	10.6	2	6	112	0.00	30.053 
07:20	13.8	13.8	13.8	86	10.4	3	12	90	0.00	30.053 
07:25	13.8	13.8	13.8	86	10.4	2	6	68	0.00	30.053 
07:30	13.8	13.8	13.8	86	10.4	2	7	90	0.00	30.051 
07:35	13.8	13.8	13.8	86	10.4	2	6	112	0.00	30.051 
07:40	13.8	13.8	13.8	86	10.4	2	7	90	0.00	30.051 
07:45	13.6	13.6	13.6	86	10.2	2	7	112	0.00	30.058 
07:50	13.6	13.6	13.6	86	10.2	2	6	90	0.00	30.058 
07:55	13.6	13.6	13.6	86	10.2	1	5	68	0.00	30.058 
08:00	13.6	13.6	13.6	86	10.2	2	6	112	0.00	30.057 
08:05	13.5	13.5	13.5	86	10.1	3	13	112	0.00	30.057 
08:10	13.5	13.5	13.5	86	10.1	2	6	45	0.00	30.057 
08:15	13.5	13.5	13.5	86	10.1	1	6	45	0.00	30.053 
08:20	13.5	13.5	13.5	86	10.1	2	6	90	0.00	30.053 
08:25	13.5	13.5	13.5	86	10.1	2	6	90	0.00	30.053 
08:30	13.5	13.5	13.5	86	10.1	2	7	112	0.00	30.051 
08:35	13.5	13.5	13.5	86	10.1	3	9	112	0.00	30.051 
08:40	13.5	13.5	13.5	86	10.1	2	10	68	0.00	30.051 
08:45	13.5	13.5	13.5	86	10.1	2	5	68	0.00	30.056 
08:50	13.3	13.3	13.3	86	9.9	3	15	90	0.00	30.056 
08:55	13.5	13.5	13.5	86	10.1	2	11	45	0.00	30.056 
09:00	13.5	13.5	13.5	86	10.1	1	9	112	0.00	30.059 
09:05	13.5	13.5	13.5	86	10.1	2	8	90	0.00	30.059 
09:10	13.5	13.5	13.5	86	10.1	3	6	90	0.00	30.059 
09:15	13.5	13.5	13.5	86	10.1	2	5	68	0.00	30.059 
09:20	13.6	13.6	13.6	86	10.2	2	6	90	0.00	30.059 
09:25	13.6	13.6	13.6	86	10.2	1	6	112	0.00	30.059 
09:30	13.8	13.8	13.8	86	10.4	1	6	90	0.00	30.067 
09:35	13.8	13.8	13.8	86	10.4	2	9	90	0.00	30.067 
09:40	13.8	13.8	13.8	85	10.1	2	6	338	0.00	30.067 
09:45	13.8	13.8	13.8	85	10.1	2	15	338	0.00	30.063 
09:50	13.8	13.8	13.8	86	10.4	2	7	90	0.00	30.063 
09:55	13.8	13.8	13.8	86	10.4	1	5	112	0.00	30.063 
10:00	14.0	14.0	14.0	85	10.3	2	11	90	0.00	30.065 
10:05	13.8	13.8	13.8	85	10.1	3	10	112	0.00	30.065 
10:10	13.8	13.8	13.8	85	10.1	1	9	68	0.00	30.065 
10:15	13.8	13.8	13.8	85	10.1	2	7	112	0.00	30.075 
10:20	13.6	13.6	13.6	85	9.9	2	9	338	0.00	30.075 
10:25	13.6	13.6	13.6	85	9.9	3	9	112	0.00	30.075 
10:30	13.6	13.6	13.6	85	9.9	2	9	68	0.00	30.081 
10:35	13.6	13.6	13.6	85	9.9	2	10	0	0.00	30.081 
10:40	13.6	13.6	13.6	85	9.9	2	9	68	0.00	30.081 
10:45	13.8	13.8	13.8	85	10.1	2	7	45	0.00	30.078 
10:50	14.0	14.0	14.0	85	10.3	1	5	338	0.00	30.078 
10:55	14.0	14.0	14.0	85	10.3	2	6	338	0.00	30.078 
11:00	14.1	14.1	14.1	85	10.4	2	9	112	0.00	30.085 
11:05	14.0	14.0	14.0	85	10.3	2	11	338	0.00	30.085 
11:10	14.1	14.1	14.1	85	10.4	2	9	112	0.00	30.085 
11:15	14.1	14.1	14.1	85	10.4	2	8	22	0.00	30.078 
11:20	14.3	14.3	14.3	85	10.6	1	5	90	0.00	30.078 
11:25	14.4	14.4	14.4	85	10.7	2	10	90	0.00	30.078 
11:30	14.4	14.4	14.4	85	10.7	2	6	68	0.00	30.085 
11:35	14.6	14.6	14.6	84	10.7	2	6	22	0.00	30.085 
11:40	14.6	14.6	14.6	84	10.7	2	10	0	0.00	30.085 
11:45	14.6	14.6	14.6	84	10.7	2	7	112	0.00	30.084 
11:50	14.6	14.6	14.6	84	10.7	1	5	338	0.00	30.084 
11:55	14.6	14.6	14.6	84	10.7	2	14	338	0.00	30.084 
12:00	14.6	14.6	14.6	84	10.7	2	9	315	0.00	30.075 
12:05	14.6	14.6	14.6	84	10.7	2	7	338	0.00	30.075 
12:10	14.4	14.4	14.4	84	10.5	2	13	338	0.00	30.075 
12:15	14.4	14.4	14.4	84	10.5	2	5	90	0.00	30.076 
12:20	14.6	14.6	14.6	84	10.7	2	6	338	0.00	30.076 
12:25	14.6	14.6	14.6	84	10.7	2	6	338	0.00	30.076 
12:30	14.6	14.6	14.6	84	10.7	1	6	315	0.00	30.069 
12:35	14.6	14.6	14.6	84	10.7	2	7	315	0.00	30.069 
12:40	14.8	14.8	14.8	84	10.9	1	9	0	0.00	30.069 
12:45	14.8	14.8	14.8	84	10.9	3	16	0	0.00	30.063 
12:50	14.8	14.8	14.8	84	10.9	3	8	112	0.00	30.063 
12:55	14.9	14.9	14.9	84	11.0	2	5	338	0.00	30.063 
13:00	15.1	15.1	15.1	84	11.2	1	5	338	0.00	30.058 
13:05	15.1	15.1	15.1	84	11.2	2	10	338	0.00	30.058 
13:10	14.8	14.8	14.8	84	10.9	3	10	338	0.00	30.058 
13:15	14.8	14.8	14.8	83	10.6	3	7	0	0.00	30.067 
13:20	14.9	14.9	14.9	83	10.7	2	6	0	0.00	30.067 
13:25	15.1	15.1	15.1	83	10.9	2	10	68	0.00	30.067 
13:30	14.9	14.9	14.9	83	10.7	3	7	0	0.00	30.070 
13:35	14.9	14.9	14.9	83	10.7	2	5	338	0.00	30.070 
13:40	15.1	15.1	15.1	82	10.6	2	6	292	0.00	30.070 
13:45	14.9	14.9	14.9	82	10.4	2	6	45	0.00	30.073 
13:50	14.9	14.9	14.9	82	10.4	1	9	45	0.00	30.073 
13:55	14.9	14.9	14.9	82	10.4	2	7	112	0.00	30.073 
14:00	14.9	14.9	14.9	82	10.4	2	5	45	0.00	30.074 
14:05	14.9	14.9	14.9	82	10.4	2	5	338	0.00	30.074 
14:10	14.9	14.9	14.9	82	10.4	2	10	0	0.00	30.074 
14:15	14.9	14.9	14.9	82	10.4	1	5	338	0.00	30.075 
14:20	15.1	15.1	15.1	82	10.6	2	4	0	0.00	30.075 
14:25	14.9	14.9	14.9	81	10.1	3	10	112	0.00	30.075 
14:30	15.1	15.1	15.1	81	10.3	1	10	112	0.00	30.075 
14:35	14.9	14.9	14.9	81	10.1	2	9	0	0.00	30.075 
14:40	15.1	15.1	15.1	81	10.3	2	10	112	0.00	30.075 
14:45	15.1	15.1	15.1	81	10.3	2	6	338	0.00	30.080 
14:50	15.1	15.1	15.1	81	10.3	2	7	338	0.00	30.080 
14:55	14.8	14.8	14.8	81	10.0	3	9	338	0.00	30.080 
15:00	14.4	14.4	14.4	81	9.7	3	10	338	0.00	30.089 
15:05	14.3	14.3	14.3	81	9.6	3	10	315	0.00	30.089 
15:10	14.1	14.1	14.1	81	9.4	3	8	338	0.00	30.089 
15:15	14.3	14.3	14.3	82	9.8	1	5	338	0.00	30.096 
15:20	14.1	14.1	14.1	81	9.4	3	10	338	0.00	30.096 
15:25	14.1	14.1	14.1	81	9.4	2	5	0	0.00	30.096 
15:30	14.1	14.1	14.1	81	9.4	2	5	338	0.00	30.105 
15:35	14.1	14.1	14.1	81	9.4	3	7	338	0.00	30.105 
15:40	14.0	14.0	14.0	81	9.3	3	9	338	0.00	30.105 
15:45	14.0	14.0	14.0	81	9.3	3	10	338	0.00	30.112 
15:50	14.0	14.0	14.0	80	9.0	3	13	338	0.00	30.112 
15:55	14.0	14.0	14.0	80	9.0	3	6	0	0.00	30.112 
16:00	14.0	14.0	14.0	80	9.0	1	5	0	0.00	30.118 
16:05	14.0	14.0	14.0	80	9.0	2	10	338	0.00	30.118 
16:10	14.0	14.0	14.0	80	9.0	2	7	338	0.00	30.118 
16:15	14.0	14.0	14.0	79	8.7	2	6	338	0.00	30.125 
16:20	14.0	14.0	14.0	79	8.7	2	7	338	0.00	30.125 
16:25	14.0	14.0	14.0	79	8.7	3	9	338	0.00	30.125 
16:30	13.8	13.8	13.8	80	8.8	2	7	22	0.00	30.136 
16:35	13.8	13.8	13.8	80	8.8	2	6	22	0.00	30.136 
16:40	13.8	13.8	13.8	80	8.8	3	10	338	0.00	30.136 
16:45	13.5	13.5	13.5	80	8.5	2	7	0	0.00	30.147 
16:50	13.5	13.5	13.5	79	8.2	2	7	338	0.00	30.147 
16:55	13.3	13.3	13.3	79	8.0	1	4	338	0.00	30.147 
17:00	13.3	13.3	13.3	79	8.0	2	5	315	0.00	30.155 
17:05	13.1	13.1	13.1	78	7.6	2	6	315	0.00	30.155 
17:10	12.9	12.9	12.9	78	7.4	1	5	338	0.00	30.155 
17:15	12.9	12.9	12.9	78	7.4	2	5	338	0.00	30.168 
17:20	12.8	12.8	12.8	78	7.3	2	7	0	0.00	30.168 
17:25	12.8	12.8	12.8	78	7.3	3	9	338	0.00	30.168 
17:30	12.6	12.6	12.6	78	7.1	3	10	0	0.00	30.179 
17:35	12.4	12.4	12.4	77	6.6	2	7	338	0.00	30.179 
17:40	12.3	12.3	12.3	77	6.5	2	6	0	0.00	30.179 
17:45	12.3	12.3	12.3	77	6.5	3	7	338	0.00	30.193 
17:50	12.1	12.1	12.1	77	6.3	3	7	270	0.00	30.193 
17:55	11.9	11.9	11.9	77	6.1	2	6	315	0.00	30.193 
18:00	11.7	11.7	11.7	77	5.9	2	6	22	0.00	30.206 
18:05	11.7	11.7	11.7	77	5.9	3	7	315	0.00	30.206 
18:10	11.6	11.6	11.6	77	5.8	2	6	338	0.00	30.206 
18:15	11.6	11.6	11.6	77	5.8	2	5	0	0.00	30.215 
18:20	11.4	11.4	11.4	76	5.3	2	9	338	0.00	30.215 
18:25	11.2	11.2	11.2	76	5.1	2	4	338	0.00	30.215 
18:30	11.2	11.2	11.2	76	5.1	2	6	315	0.00	30.227 
18:35	11.1	11.1	11.1	76	5.0	2	6	338	0.00	30.227 
18:40	11.1	11.1	11.1	75	4.8	2	5	338	0.00	30.227 
18:45	10.9	10.9	10.9	75	4.6	2	5	338	0.00	30.242 
18:50	10.9	10.9	10.9	75	4.6	2	6	315	0.00	30.242 
18:55	10.9	10.9	10.9	75	4.6	2	5	338	0.00	30.242 
19:00	10.7	10.7	10.7	74	4.1	2	5	338	0.00	30.252 
19:05	10.7	10.7	10.7	74	4.1	3	9	338	0.00	30.252 
19:10	10.7	10.7	10.7	74	4.1	2	6	315	0.00	30.252 
19:15	10.5	10.5	10.5	74	3.9	2	7	338	0.00	30.261 
19:20	10.5	10.5	10.5	73	3.6	2	10	315	0.00	30.261 
19:25	10.4	10.4	10.4	73	3.5	1	4	338	0.00	30.261 
19:30	10.4	10.4	10.4	73	3.5	2	5	315	0.00	30.268 
19:35	10.4	10.4	10.4	73	3.5	2	6	0	0.00	30.268 
19:40	10.2	10.2	10.2	73	3.3	2	5	338	0.00	30.268 
19:45	10.2	10.2	10.2	73	3.3	3	9	338	0.00	30.274 
19:50	10.0	10.0	10.0	73	3.1	3	9	338	0.00	30.274 
19:55	10.0	10.0	10.0	72	2.8	3	6	338	0.00	30.274 
20:00	10.0	10.0	10.0	72	2.8	2	6	338	0.00	30.282 
20:05	9.9	9.9	9.9	72	2.7	2	5	0	0.00	30.282 
20:10	9.9	9.9	9.9	72	2.7	2	4	338	0.00	30.282 
20:15	9.9	9.9	9.9	72	2.7	2	5	338	0.00	30.294 
20:20	9.9	9.9	9.9	72	2.7	2	4	0	0.00	30.294 
20:25	9.7	9.7	9.7	71	2.2	2	5	338	0.00	30.294 
20:30	9.7	9.7	9.7	71	2.2	3	6	338	0.00	30.299 
20:35	9.7	9.7	9.7	71	2.2	2	6	338	0.00	30.299 
20:40	9.7	9.7	9.7	71	2.2	2	4	338	0.00	30.299 
20:45	9.7	9.7	9.7	71	2.2	2	5	292	0.00	30.309 
20:50	9.7	9.7	9.7	71	2.2	2	5	0	0.00	30.309 
20:55	9.7	9.7	9.7	71	2.2	1	4	292	0.00	30.309 
21:00	9.5	9.5	9.5	71	2.0	2	4	338	0.00	30.307 
21:05	9.5	9.5	9.5	70	1.7	1	4	292	0.00	30.307 
21:10	9.5	9.5	9.5	70	1.7	2	5	338	0.00	30.307 
21:15	9.5	9.5	9.5	70	1.7	1	5	338	0.00	30.309 
21:20	9.3	9.3	9.3	70	1.5	1	5	338	0.00	30.309 
21:25	9.3	9.3	9.3	70	1.5	1	3	338	0.00	30.309 
21:30	9.2	9.2	9.2	69	1.1	3	7	338	0.00	30.307 
21:35	9.2	9.2	9.2	69	1.1	1	4	315	0.00	30.307 
21:40	9.0	9.0	9.0	69	0.9	1	4	315	0.00	30.307 
21:45	8.8	8.8	8.8	69	0.7	1	3	315	0.00	30.314 
21:50	8.6	8.6	8.6	69	0.5	1	4	315	0.00	30.314 
21:55	8.4	8.4	8.4	69	0.4	1	3	0	0.00	30.314 
22:00	8.4	8.4	8.4	69	0.4	1	2	315	0.00	30.313 
22:05	8.1	8.1	8.1	69	0.1	0	2	338	0.00	30.313 
22:10	7.9	7.9	7.9	69	-0.1	0	2	338	0.00	30.313 
22:15	7.7	7.7	7.7	69	-0.3	0	4	338	0.00	30.317 
22:20	7.6	7.6	7.6	69	-0.4	0	3	22	0.00	30.317 
22:25	7.4	7.4	7.4	69	-0.6	1	3	315	0.00	30.317 
22:30	7.2	7.2	7.2	68	-1.1	0	2	292	0.00	30.320 
22:35	7.0	7.0	7.0	68	-1.3	0	2	292	0.00	30.320 
22:40	6.9	6.9	6.9	68	-1.4	0	2	292	0.00	30.320 
22:45	6.9	6.9	6.9	68	-1.4	0	3	315	0.00	30.333 
22:50	6.7	6.7	6.7	68	-1.6	0	2	315	0.00	30.333 
22:55	6.7	6.7	6.7	68	-1.6	0	2	315	0.00	30.333 
23:00	6.5	6.5	6.5	68	-1.8	0	0	---	0.00	30.333 
23:05	6.3	6.3	6.3	68	-2.0	0	2	315	0.00	30.333 
23:10	6.1	6.1	6.1	68	-2.2	0	1	315	0.00	30.333 
23:15	6.0	6.0	6.0	68	-2.3	0	1	315	0.00	30.337 
23:20	5.8	5.8	5.8	67	-2.8	0	0	---	0.00	30.337 
23:25	5.4	5.4	5.4	67	-3.1	0	1	315	0.00	30.337 
23:30	5.2	5.2	5.2	68	-3.0	0	1	315	0.00	30.343 
23:35	5.0	5.0	5.0	68	-3.2	0	1	315	0.00	30.343 
23:40	4.8	4.8	4.8	68	-3.4	0	0	---	0.00	30.343 
23:45	4.7	4.7	4.7	68	-3.5	0	0	---	0.00	30.351 
23:50	4.5	4.5	4.5	68	-3.7	0	0	---	0.00	30.351 
23:55	4.3	4.3	4.3	68	-3.9	0	0	---	0.00	30.351 

CoCoRaHS
IN-AL-39
A2 Web Hosting
Creative Commons License
GoDaddy
search engine by freefind advanced

loaded 2018-11-15 15:36:34 • last modified 2010-11-18 10:43:29
Privacy PolicyDisclaimer
• wx.awcolley.com is powered by PmWiki v.2002016 •
• all content (unless otherwise noted) © 2018 A W Colley